sensor_id;sensor_type;location;lat;lon;timestamp;temperature;humidity
38209;DHT22;24016;52.102;11.584;2023-12-07T00:01:08;0.60;99.90
38209;DHT22;24016;52.102;11.584;2023-12-07T00:03:33;0.60;99.90
38209;DHT22;24016;52.102;11.584;2023-12-07T00:05:59;0.60;99.90
38209;DHT22;24016;52.102;11.584;2023-12-07T00:08:25;0.60;99.90
38209;DHT22;24016;52.102;11.584;2023-12-07T00:10:50;0.60;99.90
38209;DHT22;24016;52.102;11.584;2023-12-07T00:13:16;0.60;99.90
38209;DHT22;24016;52.102;11.584;2023-12-07T00:15:42;0.60;99.90
38209;DHT22;24016;52.102;11.584;2023-12-07T00:18:08;0.60;99.90
38209;DHT22;24016;52.102;11.584;2023-12-07T00:20:33;0.60;99.90
38209;DHT22;24016;52.102;11.584;2023-12-07T00:22:59;0.60;99.90
38209;DHT22;24016;52.102;11.584;2023-12-07T00:25:24;0.60;99.90
38209;DHT22;24016;52.102;11.584;2023-12-07T00:27:50;0.60;99.90
38209;DHT22;24016;52.102;11.584;2023-12-07T00:30:16;0.60;99.90
38209;DHT22;24016;52.102;11.584;2023-12-07T00:32:42;0.60;99.90
38209;DHT22;24016;52.102;11.584;2023-12-07T00:35:09;0.60;99.90
38209;DHT22;24016;52.102;11.584;2023-12-07T00:37:35;0.60;99.90
38209;DHT22;24016;52.102;11.584;2023-12-07T00:40:01;0.60;99.90
38209;DHT22;24016;52.102;11.584;2023-12-07T00:42:27;0.60;99.90
38209;DHT22;24016;52.102;11.584;2023-12-07T00:44:53;0.60;99.90
38209;DHT22;24016;52.102;11.584;2023-12-07T00:47:18;0.60;99.90
38209;DHT22;24016;52.102;11.584;2023-12-07T00:49:44;0.60;99.90
38209;DHT22;24016;52.102;11.584;2023-12-07T00:52:10;0.60;99.90
38209;DHT22;24016;52.102;11.584;2023-12-07T00:54:35;0.60;99.90
38209;DHT22;24016;52.102;11.584;2023-12-07T00:57:01;0.60;99.90
38209;DHT22;24016;52.102;11.584;2023-12-07T00:59:26;0.60;99.90
38209;DHT22;24016;52.102;11.584;2023-12-07T01:01:52;0.60;99.90
38209;DHT22;24016;52.102;11.584;2023-12-07T01:04:17;0.60;99.90
38209;DHT22;24016;52.102;11.584;2023-12-07T01:06:43;0.60;99.90
38209;DHT22;24016;52.102;11.584;2023-12-07T01:09:09;0.60;99.90
38209;DHT22;24016;52.102;11.584;2023-12-07T01:11:39;0.60;99.90
38209;DHT22;24016;52.102;11.584;2023-12-07T01:14:07;0.60;99.90
38209;DHT22;24016;52.102;11.584;2023-12-07T01:16:33;0.60;99.90
38209;DHT22;24016;52.102;11.584;2023-12-07T01:18:58;0.60;99.90
38209;DHT22;24016;52.102;11.584;2023-12-07T01:21:24;0.60;99.90
38209;DHT22;24016;52.102;11.584;2023-12-07T01:23:49;0.60;99.90
38209;DHT22;24016;52.102;11.584;2023-12-07T01:26:15;0.60;99.90
38209;DHT22;24016;52.102;11.584;2023-12-07T01:28:40;0.60;99.90
38209;DHT22;24016;52.102;11.584;2023-12-07T01:31:06;0.60;99.90
38209;DHT22;24016;52.102;11.584;2023-12-07T01:33:31;0.60;99.90
38209;DHT22;24016;52.102;11.584;2023-12-07T01:35:57;0.60;99.90
38209;DHT22;24016;52.102;11.584;2023-12-07T01:38:22;0.60;99.90
38209;DHT22;24016;52.102;11.584;2023-12-07T01:40:48;0.60;99.90
38209;DHT22;24016;52.102;11.584;2023-12-07T01:43:14;0.60;99.90
38209;DHT22;24016;52.102;11.584;2023-12-07T01:45:39;0.60;99.90
38209;DHT22;24016;52.102;11.584;2023-12-07T01:48:05;0.60;99.90
38209;DHT22;24016;52.102;11.584;2023-12-07T01:50:31;0.60;99.90
38209;DHT22;24016;52.102;11.584;2023-12-07T01:53:01;0.70;99.90
38209;DHT22;24016;52.102;11.584;2023-12-07T01:55:28;0.60;99.90
38209;DHT22;24016;52.102;11.584;2023-12-07T01:57:55;0.60;99.90
38209;DHT22;24016;52.102;11.584;2023-12-07T02:00:21;0.60;99.90
38209;DHT22;24016;52.102;11.584;2023-12-07T02:02:47;0.60;99.90
38209;DHT22;24016;52.102;11.584;2023-12-07T02:05:13;0.60;99.90
38209;DHT22;24016;52.102;11.584;2023-12-07T02:07:41;0.60;99.90
38209;DHT22;24016;52.102;11.584;2023-12-07T02:10:07;0.60;99.90
38209;DHT22;24016;52.102;11.584;2023-12-07T02:12:33;0.60;99.90
38209;DHT22;24016;52.102;11.584;2023-12-07T02:15:00;0.60;99.90
38209;DHT22;24016;52.102;11.584;2023-12-07T02:17:48;0.60;99.90
38209;DHT22;24016;52.102;11.584;2023-12-07T02:20:28;0.60;99.90
38209;DHT22;24016;52.102;11.584;2023-12-07T02:22:55;0.60;99.90
38209;DHT22;24016;52.102;11.584;2023-12-07T02:25:32;0.60;99.90
38209;DHT22;24016;52.102;11.584;2023-12-07T02:28:00;0.60;99.90
38209;DHT22;24016;52.102;11.584;2023-12-07T02:33:04;0.60;99.90
38209;DHT22;24016;52.102;11.584;2023-12-07T02:35:31;0.60;99.90
38209;DHT22;24016;52.102;11.584;2023-12-07T02:37:58;0.60;99.90
38209;DHT22;24016;52.102;11.584;2023-12-07T02:40:26;0.50;99.90
38209;DHT22;24016;52.102;11.584;2023-12-07T02:42:59;0.60;99.90
38209;DHT22;24016;52.102;11.584;2023-12-07T02:45:26;0.60;99.90
38209;DHT22;24016;52.102;11.584;2023-12-07T02:47:53;0.60;99.90
38209;DHT22;24016;52.102;11.584;2023-12-07T02:50:21;0.60;99.90
38209;DHT22;24016;52.102;11.584;2023-12-07T02:52:46;0.60;99.90
38209;DHT22;24016;52.102;11.584;2023-12-07T02:55:12;0.60;99.90
38209;DHT22;24016;52.102;11.584;2023-12-07T02:57:38;0.60;99.90
38209;DHT22;24016;52.102;11.584;2023-12-07T03:00:04;0.60;99.90
38209;DHT22;24016;52.102;11.584;2023-12-07T03:02:36;0.60;99.90
38209;DHT22;24016;52.102;11.584;2023-12-07T03:05:02;0.60;99.90
38209;DHT22;24016;52.102;11.584;2023-12-07T03:07:28;0.60;99.90
38209;DHT22;24016;52.102;11.584;2023-12-07T03:09:53;0.60;99.90
38209;DHT22;24016;52.102;11.584;2023-12-07T03:12:18;0.60;99.90
38209;DHT22;24016;52.102;11.584;2023-12-07T03:14:44;0.60;99.90
38209;DHT22;24016;52.102;11.584;2023-12-07T03:17:09;0.60;99.90
38209;DHT22;24016;52.102;11.584;2023-12-07T03:19:39;0.60;99.90
38209;DHT22;24016;52.102;11.584;2023-12-07T03:22:04;0.60;99.90
38209;DHT22;24016;52.102;11.584;2023-12-07T03:24:33;0.50;99.90
38209;DHT22;24016;52.102;11.584;2023-12-07T03:26:59;0.60;99.90
38209;DHT22;24016;52.102;11.584;2023-12-07T03:29:24;0.60;99.90
38209;DHT22;24016;52.102;11.584;2023-12-07T03:31:50;0.50;99.90
38209;DHT22;24016;52.102;11.584;2023-12-07T03:34:15;0.50;99.90
38209;DHT22;24016;52.102;11.584;2023-12-07T03:36:45;0.50;99.90
38209;DHT22;24016;52.102;11.584;2023-12-07T03:39:10;0.50;99.90
38209;DHT22;24016;52.102;11.584;2023-12-07T03:41:36;0.50;99.90
38209;DHT22;24016;52.102;11.584;2023-12-07T03:44:01;0.50;99.90
38209;DHT22;24016;52.102;11.584;2023-12-07T03:46:27;0.50;99.90
38209;DHT22;24016;52.102;11.584;2023-12-07T03:48:52;0.50;99.90
38209;DHT22;24016;52.102;11.584;2023-12-07T03:51:18;0.50;99.90
38209;DHT22;24016;52.102;11.584;2023-12-07T03:53:44;0.50;99.90
38209;DHT22;24016;52.102;11.584;2023-12-07T03:56:09;0.50;99.90
38209;DHT22;24016;52.102;11.584;2023-12-07T03:58:35;0.50;99.90
38209;DHT22;24016;52.102;11.584;2023-12-07T04:01:01;0.50;99.90
38209;DHT22;24016;52.102;11.584;2023-12-07T04:03:27;0.50;99.90
38209;DHT22;24016;52.102;11.584;2023-12-07T04:05:52;0.50;99.90
38209;DHT22;24016;52.102;11.584;2023-12-07T04:08:18;0.50;99.90
38209;DHT22;24016;52.102;11.584;2023-12-07T04:10:43;0.50;99.90
38209;DHT22;24016;52.102;11.584;2023-12-07T04:13:09;0.50;99.90
38209;DHT22;24016;52.102;11.584;2023-12-07T04:15:34;0.50;99.90
38209;DHT22;24016;52.102;11.584;2023-12-07T04:18:00;0.50;99.90
38209;DHT22;24016;52.102;11.584;2023-12-07T04:20:25;0.50;99.90
38209;DHT22;24016;52.102;11.584;2023-12-07T04:22:51;0.50;99.90
38209;DHT22;24016;52.102;11.584;2023-12-07T04:25:17;0.50;99.90
38209;DHT22;24016;52.102;11.584;2023-12-07T04:27:43;0.50;99.90
38209;DHT22;24016;52.102;11.584;2023-12-07T04:30:09;0.50;99.90
38209;DHT22;24016;52.102;11.584;2023-12-07T04:32:34;0.50;99.90
38209;DHT22;24016;52.102;11.584;2023-12-07T04:35:00;0.50;99.90
38209;DHT22;24016;52.102;11.584;2023-12-07T04:37:26;0.50;99.90
38209;DHT22;24016;52.102;11.584;2023-12-07T04:39:51;0.50;99.90
38209;DHT22;24016;52.102;11.584;2023-12-07T04:42:17;0.50;99.90
38209;DHT22;24016;52.102;11.584;2023-12-07T04:44:42;0.50;99.90
38209;DHT22;24016;52.102;11.584;2023-12-07T04:47:08;0.50;99.90
38209;DHT22;24016;52.102;11.584;2023-12-07T04:49:33;0.50;99.90
38209;DHT22;24016;52.102;11.584;2023-12-07T04:51:59;0.50;99.90
38209;DHT22;24016;52.102;11.584;2023-12-07T04:54:25;0.50;99.90
38209;DHT22;24016;52.102;11.584;2023-12-07T04:56:53;0.50;99.90
38209;DHT22;24016;52.102;11.584;2023-12-07T04:59:18;0.50;99.90
38209;DHT22;24016;52.102;11.584;2023-12-07T05:01:43;0.60;99.90
38209;DHT22;24016;52.102;11.584;2023-12-07T05:04:09;0.60;99.90
38209;DHT22;24016;52.102;11.584;2023-12-07T05:06:35;0.60;99.90
38209;DHT22;24016;52.102;11.584;2023-12-07T05:09:00;0.60;99.90
38209;DHT22;24016;52.102;11.584;2023-12-07T05:11:26;0.60;99.90
38209;DHT22;24016;52.102;11.584;2023-12-07T05:13:51;0.50;99.90
38209;DHT22;24016;52.102;11.584;2023-12-07T05:16:17;0.60;99.90
38209;DHT22;24016;52.102;11.584;2023-12-07T05:18:43;0.60;99.90
38209;DHT22;24016;52.102;11.584;2023-12-07T05:21:09;0.60;99.90
38209;DHT22;24016;52.102;11.584;2023-12-07T05:23:34;0.50;99.90
38209;DHT22;24016;52.102;11.584;2023-12-07T05:26:00;0.60;99.90
38209;DHT22;24016;52.102;11.584;2023-12-07T05:28:26;0.60;99.90
38209;DHT22;24016;52.102;11.584;2023-12-07T05:30:52;0.60;99.90
38209;DHT22;24016;52.102;11.584;2023-12-07T05:33:18;0.60;99.90
38209;DHT22;24016;52.102;11.584;2023-12-07T05:35:47;0.60;99.90
38209;DHT22;24016;52.102;11.584;2023-12-07T05:38:12;0.60;99.90
38209;DHT22;24016;52.102;11.584;2023-12-07T05:40:38;0.60;99.90
38209;DHT22;24016;52.102;11.584;2023-12-07T05:43:03;0.60;99.90
38209;DHT22;24016;52.102;11.584;2023-12-07T05:45:29;0.70;99.90
38209;DHT22;24016;52.102;11.584;2023-12-07T05:47:56;0.60;99.90
38209;DHT22;24016;52.102;11.584;2023-12-07T05:50:22;0.60;99.90
38209;DHT22;24016;52.102;11.584;2023-12-07T05:52:48;0.60;99.90
38209;DHT22;24016;52.102;11.584;2023-12-07T05:55:14;0.60;99.90
38209;DHT22;24016;52.102;11.584;2023-12-07T05:57:39;0.60;99.90
38209;DHT22;24016;52.102;11.584;2023-12-07T06:00:13;0.60;99.90
38209;DHT22;24016;52.102;11.584;2023-12-07T06:02:41;0.70;99.90
38209;DHT22;24016;52.102;11.584;2023-12-07T06:05:07;0.70;99.90
38209;DHT22;24016;52.102;11.584;2023-12-07T06:07:40;0.70;99.90
38209;DHT22;24016;52.102;11.584;2023-12-07T06:10:09;0.60;99.90
38209;DHT22;24016;52.102;11.584;2023-12-07T06:12:34;0.70;99.90
38209;DHT22;24016;52.102;11.584;2023-12-07T06:15:00;0.60;99.90
38209;DHT22;24016;52.102;11.584;2023-12-07T06:17:25;0.70;99.90
38209;DHT22;24016;52.102;11.584;2023-12-07T06:19:51;0.70;99.90
38209;DHT22;24016;52.102;11.584;2023-12-07T06:22:20;0.70;99.90
38209;DHT22;24016;52.102;11.584;2023-12-07T06:24:46;0.70;99.90
38209;DHT22;24016;52.102;11.584;2023-12-07T06:27:11;0.80;99.90
38209;DHT22;24016;52.102;11.584;2023-12-07T06:29:37;0.80;99.90
38209;DHT22;24016;52.102;11.584;2023-12-07T06:32:03;0.80;99.90
38209;DHT22;24016;52.102;11.584;2023-12-07T06:34:28;0.80;99.90
38209;DHT22;24016;52.102;11.584;2023-12-07T06:36:54;0.80;99.90
38209;DHT22;24016;52.102;11.584;2023-12-07T06:39:20;0.80;99.90
38209;DHT22;24016;52.102;11.584;2023-12-07T06:41:45;0.80;99.90
38209;DHT22;24016;52.102;11.584;2023-12-07T06:44:11;0.80;99.90
38209;DHT22;24016;52.102;11.584;2023-12-07T06:46:36;0.80;99.90
38209;DHT22;24016;52.102;11.584;2023-12-07T06:49:02;0.80;99.90
38209;DHT22;24016;52.102;11.584;2023-12-07T06:51:27;0.80;99.90
38209;DHT22;24016;52.102;11.584;2023-12-07T06:53:53;0.80;99.90
38209;DHT22;24016;52.102;11.584;2023-12-07T06:56:18;0.80;99.90
38209;DHT22;24016;52.102;11.584;2023-12-07T06:58:44;0.80;99.90
38209;DHT22;24016;52.102;11.584;2023-12-07T07:01:10;0.80;99.90
38209;DHT22;24016;52.102;11.584;2023-12-07T07:03:35;0.80;99.90
38209;DHT22;24016;52.102;11.584;2023-12-07T07:06:01;0.80;99.90
38209;DHT22;24016;52.102;11.584;2023-12-07T07:08:29;0.80;99.90
38209;DHT22;24016;52.102;11.584;2023-12-07T07:10:56;0.80;99.90
38209;DHT22;24016;52.102;11.584;2023-12-07T07:13:21;0.90;99.90
38209;DHT22;24016;52.102;11.584;2023-12-07T07:15:47;0.90;99.90
38209;DHT22;24016;52.102;11.584;2023-12-07T07:18:16;0.90;99.90
38209;DHT22;24016;52.102;11.584;2023-12-07T07:20:41;0.90;99.90
38209;DHT22;24016;52.102;11.584;2023-12-07T07:23:07;0.90;99.90
38209;DHT22;24016;52.102;11.584;2023-12-07T07:25:33;0.90;99.90
38209;DHT22;24016;52.102;11.584;2023-12-07T07:27:59;0.90;99.90
38209;DHT22;24016;52.102;11.584;2023-12-07T07:30:25;0.80;99.90
38209;DHT22;24016;52.102;11.584;2023-12-07T07:32:51;0.80;99.90
38209;DHT22;24016;52.102;11.584;2023-12-07T07:35:17;0.90;99.90
38209;DHT22;24016;52.102;11.584;2023-12-07T07:37:43;0.80;99.90
38209;DHT22;24016;52.102;11.584;2023-12-07T07:40:09;0.80;99.90
38209;DHT22;24016;52.102;11.584;2023-12-07T07:42:40;0.80;99.90
38209;DHT22;24016;52.102;11.584;2023-12-07T07:45:06;0.80;99.90
38209;DHT22;24016;52.102;11.584;2023-12-07T07:47:32;0.80;99.90
38209;DHT22;24016;52.102;11.584;2023-12-07T07:49:58;0.80;99.90
38209;DHT22;24016;52.102;11.584;2023-12-07T07:52:24;0.90;99.90
38209;DHT22;24016;52.102;11.584;2023-12-07T07:54:50;0.90;99.90
38209;DHT22;24016;52.102;11.584;2023-12-07T07:57:15;0.90;99.90
38209;DHT22;24016;52.102;11.584;2023-12-07T07:59:41;0.90;99.90
38209;DHT22;24016;52.102;11.584;2023-12-07T08:02:06;0.90;99.90
38209;DHT22;24016;52.102;11.584;2023-12-07T08:04:32;0.90;99.90
38209;DHT22;24016;52.102;11.584;2023-12-07T08:06:57;0.90;99.90
38209;DHT22;24016;52.102;11.584;2023-12-07T08:09:23;0.90;99.90
38209;DHT22;24016;52.102;11.584;2023-12-07T08:11:49;0.90;99.90
38209;DHT22;24016;52.102;11.584;2023-12-07T08:14:14;1.00;99.90
38209;DHT22;24016;52.102;11.584;2023-12-07T08:16:44;1.00;99.90
38209;DHT22;24016;52.102;11.584;2023-12-07T08:19:09;1.00;99.90
38209;DHT22;24016;52.102;11.584;2023-12-07T08:21:35;1.10;99.90
38209;DHT22;24016;52.102;11.584;2023-12-07T08:24:00;1.10;99.90
38209;DHT22;24016;52.102;11.584;2023-12-07T08:26:26;1.10;99.90
38209;DHT22;24016;52.102;11.584;2023-12-07T08:28:53;1.10;99.90
38209;DHT22;24016;52.102;11.584;2023-12-07T08:31:19;1.10;99.90
38209;DHT22;24016;52.102;11.584;2023-12-07T08:33:45;1.10;99.90
38209;DHT22;24016;52.102;11.584;2023-12-07T08:36:11;1.20;99.90
38209;DHT22;24016;52.102;11.584;2023-12-07T08:38:36;1.10;99.90
38209;DHT22;24016;52.102;11.584;2023-12-07T08:41:02;1.20;99.90
38209;DHT22;24016;52.102;11.584;2023-12-07T08:43:28;1.20;99.90
38209;DHT22;24016;52.102;11.584;2023-12-07T08:45:55;1.20;99.90
38209;DHT22;24016;52.102;11.584;2023-12-07T08:48:21;1.30;99.90
38209;DHT22;24016;52.102;11.584;2023-12-07T08:50:46;1.30;99.90
38209;DHT22;24016;52.102;11.584;2023-12-07T08:53:12;1.30;99.90
38209;DHT22;24016;52.102;11.584;2023-12-07T08:55:37;1.30;99.90
38209;DHT22;24016;52.102;11.584;2023-12-07T08:58:03;1.30;99.90
38209;DHT22;24016;52.102;11.584;2023-12-07T09:00:32;1.30;99.90
38209;DHT22;24016;52.102;11.584;2023-12-07T09:02:58;1.40;99.90
38209;DHT22;24016;52.102;11.584;2023-12-07T09:05:25;1.30;99.90
38209;DHT22;24016;52.102;11.584;2023-12-07T09:07:51;1.30;99.90
38209;DHT22;24016;52.102;11.584;2023-12-07T09:10:19;1.40;99.90
38209;DHT22;24016;52.102;11.584;2023-12-07T09:12:44;1.40;99.90
38209;DHT22;24016;52.102;11.584;2023-12-07T09:15:10;1.40;99.90
38209;DHT22;24016;52.102;11.584;2023-12-07T09:17:37;1.40;99.90
38209;DHT22;24016;52.102;11.584;2023-12-07T09:20:07;1.50;99.90
38209;DHT22;24016;52.102;11.584;2023-12-07T09:22:38;1.50;99.90
38209;DHT22;24016;52.102;11.584;2023-12-07T09:25:04;1.50;99.90
38209;DHT22;24016;52.102;11.584;2023-12-07T09:27:30;1.50;99.90
38209;DHT22;24016;52.102;11.584;2023-12-07T09:29:58;1.50;99.90
38209;DHT22;24016;52.102;11.584;2023-12-07T09:32:23;1.60;99.90
38209;DHT22;24016;52.102;11.584;2023-12-07T09:34:49;1.60;99.90
38209;DHT22;24016;52.102;11.584;2023-12-07T09:37:16;1.70;99.90
38209;DHT22;24016;52.102;11.584;2023-12-07T09:39:42;1.60;99.90
38209;DHT22;24016;52.102;11.584;2023-12-07T09:42:07;1.70;99.90
38209;DHT22;24016;52.102;11.584;2023-12-07T09:44:33;1.70;99.90
38209;DHT22;24016;52.102;11.584;2023-12-07T09:46:59;1.70;99.90
38209;DHT22;24016;52.102;11.584;2023-12-07T09:49:25;1.80;99.90
38209;DHT22;24016;52.102;11.584;2023-12-07T09:51:50;1.90;99.90
38209;DHT22;24016;52.102;11.584;2023-12-07T09:54:17;1.90;99.90
38209;DHT22;24016;52.102;11.584;2023-12-07T09:56:43;2.00;99.90
38209;DHT22;24016;52.102;11.584;2023-12-07T09:59:09;2.20;99.90
38209;DHT22;24016;52.102;11.584;2023-12-07T10:01:34;2.20;99.90
38209;DHT22;24016;52.102;11.584;2023-12-07T10:04:19;2.20;99.90
38209;DHT22;24016;52.102;11.584;2023-12-07T10:06:46;2.10;99.90
38209;DHT22;24016;52.102;11.584;2023-12-07T10:09:16;2.20;99.90
38209;DHT22;24016;52.102;11.584;2023-12-07T10:11:44;2.20;99.90
38209;DHT22;24016;52.102;11.584;2023-12-07T10:14:10;2.20;99.90
38209;DHT22;24016;52.102;11.584;2023-12-07T10:16:37;2.20;99.90
38209;DHT22;24016;52.102;11.584;2023-12-07T10:19:15;2.30;99.90
38209;DHT22;24016;52.102;11.584;2023-12-07T10:21:43;2.30;99.90
38209;DHT22;24016;52.102;11.584;2023-12-07T10:24:10;2.30;99.90
38209;DHT22;24016;52.102;11.584;2023-12-07T10:26:37;2.40;99.90
38209;DHT22;24016;52.102;11.584;2023-12-07T10:29:06;2.50;99.90
38209;DHT22;24016;52.102;11.584;2023-12-07T10:31:33;2.50;99.90
38209;DHT22;24016;52.102;11.584;2023-12-07T10:33:59;2.60;99.90
38209;DHT22;24016;52.102;11.584;2023-12-07T10:36:26;2.60;99.90
38209;DHT22;24016;52.102;11.584;2023-12-07T10:38:52;2.70;99.90
38209;DHT22;24016;52.102;11.584;2023-12-07T10:41:19;2.70;99.90
38209;DHT22;24016;52.102;11.584;2023-12-07T10:43:51;2.80;99.90
38209;DHT22;24016;52.102;11.584;2023-12-07T10:46:20;2.90;99.90
38209;DHT22;24016;52.102;11.584;2023-12-07T10:48:47;3.00;99.90
38209;DHT22;24016;52.102;11.584;2023-12-07T10:51:59;3.00;99.90
38209;DHT22;24016;52.102;11.584;2023-12-07T10:54:05;2.80;99.90
38209;DHT22;24016;52.102;11.584;2023-12-07T10:59:02;2.90;99.90
38209;DHT22;24016;52.102;11.584;2023-12-07T11:01:27;3.00;99.90
38209;DHT22;24016;52.102;11.584;2023-12-07T11:03:54;2.80;99.90
38209;DHT22;24016;52.102;11.584;2023-12-07T11:06:21;2.90;99.90
38209;DHT22;24016;52.102;11.584;2023-12-07T11:08:52;3.00;99.90
38209;DHT22;24016;52.102;11.584;2023-12-07T11:11:34;2.90;99.90
38209;DHT22;24016;52.102;11.584;2023-12-07T11:14:03;2.90;99.90
38209;DHT22;24016;52.102;11.584;2023-12-07T11:16:37;3.00;99.90
38209;DHT22;24016;52.102;11.584;2023-12-07T11:19:05;3.00;99.90
38209;DHT22;24016;52.102;11.584;2023-12-07T11:21:48;3.00;99.90
38209;DHT22;24016;52.102;11.584;2023-12-07T11:24:16;2.80;99.90
38209;DHT22;24016;52.102;11.584;2023-12-07T11:26:42;2.80;99.90
38209;DHT22;24016;52.102;11.584;2023-12-07T11:29:08;2.80;99.90
38209;DHT22;24016;52.102;11.584;2023-12-07T11:31:33;2.80;99.90
38209;DHT22;24016;52.102;11.584;2023-12-07T11:34:06;2.90;99.90
38209;DHT22;24016;52.102;11.584;2023-12-07T11:36:33;2.80;99.90
38209;DHT22;24016;52.102;11.584;2023-12-07T11:41:30;3.10;99.90
38209;DHT22;24016;52.102;11.584;2023-12-07T11:43:58;3.10;99.90
38209;DHT22;24016;52.102;11.584;2023-12-07T11:46:24;3.00;99.90
38209;DHT22;24016;52.102;11.584;2023-12-07T11:48:49;3.10;99.90
38209;DHT22;24016;52.102;11.584;2023-12-07T11:51:16;3.00;99.90
38209;DHT22;24016;52.102;11.584;2023-12-07T11:53:41;2.90;99.90
38209;DHT22;24016;52.102;11.584;2023-12-07T11:56:09;2.90;99.90
38209;DHT22;24016;52.102;11.584;2023-12-07T11:58:35;2.90;99.90
38209;DHT22;24016;52.102;11.584;2023-12-07T12:01:01;2.90;99.90
38209;DHT22;24016;52.102;11.584;2023-12-07T12:03:28;3.00;99.90
38209;DHT22;24016;52.102;11.584;2023-12-07T12:05:54;2.90;99.90
38209;DHT22;24016;52.102;11.584;2023-12-07T12:08:22;2.90;99.90
38209;DHT22;24016;52.102;11.584;2023-12-07T12:10:50;2.90;99.90
38209;DHT22;24016;52.102;11.584;2023-12-07T12:13:16;2.90;99.90
38209;DHT22;24016;52.102;11.584;2023-12-07T12:15:42;3.00;99.90
38209;DHT22;24016;52.102;11.584;2023-12-07T12:18:08;3.00;99.90
38209;DHT22;24016;52.102;11.584;2023-12-07T12:20:34;3.00;99.90
38209;DHT22;24016;52.102;11.584;2023-12-07T12:23:00;3.00;99.90
38209;DHT22;24016;52.102;11.584;2023-12-07T12:25:27;3.00;99.90
38209;DHT22;24016;52.102;11.584;2023-12-07T12:27:57;3.00;99.90
38209;DHT22;24016;52.102;11.584;2023-12-07T12:30:23;2.90;99.90
38209;DHT22;24016;52.102;11.584;2023-12-07T12:32:50;2.90;99.90
38209;DHT22;24016;52.102;11.584;2023-12-07T12:35:16;2.90;99.90
38209;DHT22;24016;52.102;11.584;2023-12-07T12:37:43;2.80;99.90
38209;DHT22;24016;52.102;11.584;2023-12-07T12:40:11;2.90;99.90
38209;DHT22;24016;52.102;11.584;2023-12-07T12:42:37;2.90;99.90
38209;DHT22;24016;52.102;11.584;2023-12-07T12:45:07;2.90;99.90
38209;DHT22;24016;52.102;11.584;2023-12-07T12:47:34;2.90;99.90
38209;DHT22;24016;52.102;11.584;2023-12-07T12:50:00;3.00;99.90
38209;DHT22;24016;52.102;11.584;2023-12-07T12:52:28;2.90;99.90
38209;DHT22;24016;52.102;11.584;2023-12-07T12:54:55;3.00;99.90
38209;DHT22;24016;52.102;11.584;2023-12-07T12:57:22;3.00;99.90
38209;DHT22;24016;52.102;11.584;2023-12-07T12:59:47;3.10;99.90
38209;DHT22;24016;52.102;11.584;2023-12-07T13:02:14;3.10;99.90
38209;DHT22;24016;52.102;11.584;2023-12-07T13:04:39;3.20;99.90
38209;DHT22;24016;52.102;11.584;2023-12-07T13:07:05;3.20;99.90
38209;DHT22;24016;52.102;11.584;2023-12-07T13:09:31;3.20;99.90
38209;DHT22;24016;52.102;11.584;2023-12-07T13:11:58;3.20;99.90
38209;DHT22;24016;52.102;11.584;2023-12-07T13:14:23;3.30;99.90
38209;DHT22;24016;52.102;11.584;2023-12-07T13:16:49;3.30;99.90
38209;DHT22;24016;52.102;11.584;2023-12-07T13:19:15;3.30;99.90
38209;DHT22;24016;52.102;11.584;2023-12-07T13:21:40;3.30;99.90
38209;DHT22;24016;52.102;11.584;2023-12-07T13:24:06;3.30;99.90
38209;DHT22;24016;52.102;11.584;2023-12-07T13:26:33;3.30;99.90
38209;DHT22;24016;52.102;11.584;2023-12-07T13:28:59;3.20;99.90
38209;DHT22;24016;52.102;11.584;2023-12-07T13:31:24;3.10;99.90
38209;DHT22;24016;52.102;11.584;2023-12-07T13:33:50;3.00;99.90
38209;DHT22;24016;52.102;11.584;2023-12-07T13:36:16;3.00;99.90
38209;DHT22;24016;52.102;11.584;2023-12-07T13:38:45;3.00;99.90
38209;DHT22;24016;52.102;11.584;2023-12-07T13:41:12;3.00;99.90
38209;DHT22;24016;52.102;11.584;2023-12-07T13:43:38;3.00;99.90
38209;DHT22;24016;52.102;11.584;2023-12-07T13:46:04;3.00;99.90
38209;DHT22;24016;52.102;11.584;2023-12-07T13:48:29;3.00;99.90
38209;DHT22;24016;52.102;11.584;2023-12-07T13:50:55;3.00;99.90
38209;DHT22;24016;52.102;11.584;2023-12-07T13:53:20;3.00;99.90
38209;DHT22;24016;52.102;11.584;2023-12-07T13:55:47;3.00;99.90
38209;DHT22;24016;52.102;11.584;2023-12-07T13:58:12;2.90;99.90
38209;DHT22;24016;52.102;11.584;2023-12-07T14:00:38;2.90;99.90
38209;DHT22;24016;52.102;11.584;2023-12-07T14:03:04;2.90;99.90
38209;DHT22;24016;52.102;11.584;2023-12-07T14:05:30;2.80;99.90
38209;DHT22;24016;52.102;11.584;2023-12-07T14:07:56;2.80;99.90
38209;DHT22;24016;52.102;11.584;2023-12-07T14:10:22;2.80;99.90
38209;DHT22;24016;52.102;11.584;2023-12-07T14:12:47;2.70;99.90
38209;DHT22;24016;52.102;11.584;2023-12-07T14:15:13;2.70;99.90
38209;DHT22;24016;52.102;11.584;2023-12-07T14:17:39;2.60;99.90
38209;DHT22;24016;52.102;11.584;2023-12-07T14:20:06;2.50;99.90
38209;DHT22;24016;52.102;11.584;2023-12-07T14:22:35;2.50;99.90
38209;DHT22;24016;52.102;11.584;2023-12-07T14:25:02;2.50;99.90
38209;DHT22;24016;52.102;11.584;2023-12-07T14:27:28;2.40;99.90
38209;DHT22;24016;52.102;11.584;2023-12-07T14:29:53;2.40;99.90
38209;DHT22;24016;52.102;11.584;2023-12-07T14:32:19;2.40;99.90
38209;DHT22;24016;52.102;11.584;2023-12-07T14:34:44;2.30;99.90
38209;DHT22;24016;52.102;11.584;2023-12-07T14:37:10;2.30;99.90
38209;DHT22;24016;52.102;11.584;2023-12-07T14:39:36;2.30;99.90
38209;DHT22;24016;52.102;11.584;2023-12-07T14:42:01;2.20;99.90
38209;DHT22;24016;52.102;11.584;2023-12-07T14:44:28;2.10;99.90
38209;DHT22;24016;52.102;11.584;2023-12-07T14:46:54;2.00;99.90
38209;DHT22;24016;52.102;11.584;2023-12-07T14:49:20;2.10;99.90
38209;DHT22;24016;52.102;11.584;2023-12-07T14:51:47;2.00;99.90
38209;DHT22;24016;52.102;11.584;2023-12-07T14:54:12;2.00;99.90
38209;DHT22;24016;52.102;11.584;2023-12-07T14:56:38;2.00;99.90
38209;DHT22;24016;52.102;11.584;2023-12-07T14:59:05;1.90;99.90
38209;DHT22;24016;52.102;11.584;2023-12-07T15:01:31;1.90;99.90
38209;DHT22;24016;52.102;11.584;2023-12-07T15:03:57;1.90;99.90
38209;DHT22;24016;52.102;11.584;2023-12-07T15:06:24;1.80;99.90
38209;DHT22;24016;52.102;11.584;2023-12-07T15:08:51;1.80;99.90
38209;DHT22;24016;52.102;11.584;2023-12-07T15:11:17;1.80;99.90
38209;DHT22;24016;52.102;11.584;2023-12-07T15:13:43;1.80;99.90
38209;DHT22;24016;52.102;11.584;2023-12-07T15:16:08;1.80;99.90
38209;DHT22;24016;52.102;11.584;2023-12-07T15:18:34;1.80;99.90
38209;DHT22;24016;52.102;11.584;2023-12-07T15:21:04;1.80;99.90
38209;DHT22;24016;52.102;11.584;2023-12-07T15:23:30;1.80;99.90
38209;DHT22;24016;52.102;11.584;2023-12-07T15:25:59;1.70;99.90
38209;DHT22;24016;52.102;11.584;2023-12-07T15:28:25;1.70;99.90
38209;DHT22;24016;52.102;11.584;2023-12-07T15:30:51;1.60;99.90
38209;DHT22;24016;52.102;11.584;2023-12-07T15:33:17;1.60;99.90